Time;durP1;ratioP1;P1;durP2;ratioP2;P2;SDS_P1;SDS_P2;PMS_P1;PMS_P2;Temp;Humidity;BMP_temperature;BMP_pressure;BME280_temperature;BME280_humidity;BME280_pressure;Samples;Min_cycle;Max_cycle;Signal;HPM_P1;HPM_P2
2021/04/19 00:02:08;;;;;;;11.30;7.05;;;11.70;78.70;;;11.19;69.27;100897.94;4995334;28;20070;-80
2021/04/19 00:04:36;;;;;;;11.77;7.35;;;11.70;78.90;;;11.17;69.27;100900.00;4993588;28;20424;-80
2021/04/19 00:07:04;;;;;;;11.95;7.20;;;11.70;79.20;;;11.12;69.51;100897.00;4994743;28;20572;-80
2021/04/19 00:09:30;;;;;;;10.38;6.80;;;11.60;79.10;;;11.10;69.69;100889.00;4994851;28;20077;-80
2021/04/19 00:11:57;;;;;;;14.55;7.70;;;11.60;79.30;;;11.06;69.64;100884.94;4983378;28;20042;-80
2021/04/19 00:14:25;;;;;;;11.05;7.18;;;11.60;79.30;;;11.05;69.86;100894.13;4991813;28;20046;-80
2021/04/19 00:16:52;;;;;;;10.65;6.97;;;11.50;79.40;;;11.02;69.69;100891.75;4994346;28;20085;-80
2021/04/19 00:19:19;;;;;;;11.50;6.93;;;11.50;79.60;;;11.00;69.75;100890.22;4994719;28;20041;-80
2021/04/19 00:21:46;;;;;;;11.77;7.18;;;11.50;79.70;;;10.96;69.89;100887.84;4993824;28;20054;-80
2021/04/19 00:24:12;;;;;;;11.30;7.28;;;11.40;79.60;;;10.92;69.75;100885.69;4994333;28;20058;-80
2021/04/19 00:26:39;;;;;;;10.77;7.30;;;11.30;79.70;;;10.91;69.97;100884.84;4995062;28;20121;-80
2021/04/19 00:29:06;;;;;;;11.65;7.60;;;11.30;80.00;;;10.87;69.71;100882.63;4994253;28;20054;-80
2021/04/19 00:31:34;;;;;;;13.27;7.93;;;11.30;80.10;;;10.84;69.93;100888.44;4994845;28;20081;-80
2021/04/19 00:34:02;;;;;;;12.60;8.02;;;11.30;80.20;;;10.80;70.18;100887.94;4994171;28;20065;-80
2021/04/19 00:36:29;;;;;;;12.98;7.57;;;11.20;80.30;;;10.80;70.32;100881.66;4994228;28;20454;-80
2021/04/19 00:38:56;;;;;;;11.95;7.53;;;11.20;80.60;;;10.78;70.23;100891.88;4994560;28;20077;-80
2021/04/19 00:41:23;;;;;;;12.68;7.82;;;11.20;80.80;;;10.73;70.64;100892.41;4995061;28;20072;-80
2021/04/19 00:43:50;;;;;;;12.30;7.88;;;11.10;80.90;;;10.72;70.70;100891.56;4993658;28;20128;-80
2021/04/19 00:46:17;;;;;;;11.25;7.65;;;11.10;81.10;;;10.68;70.92;100884.78;4994844;28;20050;-80
2021/04/19 00:48:45;;;;;;;12.07;7.85;;;11.10;81.30;;;10.65;71.13;100882.41;4994109;28;20073;-80
2021/04/19 00:51:12;;;;;;;10.95;7.78;;;11.10;81.30;;;10.66;71.07;100880.50;4993488;28;20042;-80
2021/04/19 00:53:39;;;;;;;14.07;7.90;;;11.10;81.60;;;10.66;70.72;100880.50;4992651;28;20125;-80
2021/04/19 00:56:08;;;;;;;10.80;7.30;;;11.10;81.60;;;10.63;71.22;100886.31;4992529;28;20054;-80
2021/04/19 00:58:39;;;;;;;13.20;7.72;;;11.00;81.80;;;10.60;71.27;100875.78;4993360;28;20046;-80
2021/04/19 01:01:08;;;;;;;13.10;7.82;;;11.00;81.90;;;10.61;71.31;100872.06;4991566;28;20108;-81
2021/04/19 01:03:36;;;;;;;11.98;7.55;;;11.00;81.80;;;10.61;71.41;100877.50;4991506;28;20530;-80
2021/04/19 01:06:05;;;;;;;11.75;8.15;;;11.00;81.90;;;10.61;71.71;100877.50;4992165;28;20137;-80
2021/04/19 01:08:34;;;;;;;12.05;7.80;;;11.00;82.00;;;10.61;71.74;100877.50;4992141;28;20052;-80
2021/04/19 01:11:01;;;;;;;13.13;8.40;;;11.00;82.20;;;10.61;71.64;100877.50;4987995;28;20093;-80
2021/04/19 01:13:28;;;;;;;12.93;7.47;;;11.00;82.20;;;10.59;71.81;100869.50;4992967;28;20065;-80
2021/04/19 01:15:55;;;;;;;12.23;8.18;;;11.00;82.30;;;10.56;72.00;100876.13;4992275;28;20056;-81
2021/04/19 01:18:23;;;;;;;11.80;7.70;;;11.00;82.40;;;10.53;72.21;100870.22;4992041;28;20057;-80
2021/04/19 01:20:52;;;;;;;13.10;8.40;;;11.00;82.50;;;10.53;72.01;100871.03;4991946;28;20053;-80
2021/04/19 01:23:20;;;;;;;12.35;8.02;;;11.00;82.40;;;10.51;72.18;100870.38;4992981;28;20108;-80
2021/04/19 01:25:48;;;;;;;12.80;8.20;;;11.00;82.60;;;10.52;72.28;100874.78;4992770;28;20634;-81
2021/04/19 01:28:20;;;;;;;13.45;8.73;;;11.00;82.80;;;10.54;71.97;100878.16;4991815;28;20050;-80
2021/04/19 01:30:51;;;;;;;12.32;7.78;;;11.00;82.80;;;10.53;72.46;100870.22;4992325;28;20543;-79
2021/04/19 01:33:19;;;;;;;12.88;8.60;;;11.00;83.00;;;10.51;72.50;100878.53;4993814;28;20054;-79
2021/04/19 01:35:47;;;;;;;12.15;8.15;;;10.90;83.10;;;10.49;72.67;100877.88;4996860;28;20046;-79
2021/04/19 01:38:19;;;;;;;12.13;8.23;;;10.90;83.20;;;10.48;72.51;100873.44;4996801;28;20076;-79
2021/04/19 01:40:49;;;;;;;12.77;8.32;;;10.90;83.20;;;10.44;72.75;100882.97;4996030;28;20053;-79
2021/04/19 01:43:17;;;;;;;13.30;8.68;;;10.90;83.40;;;10.42;72.76;100876.03;4995970;28;20053;-79
2021/04/19 01:45:49;;;;;;;14.88;8.57;;;10.90;83.30;;;10.43;72.72;100873.09;4997011;28;20052;-79
2021/04/19 01:48:19;;;;;;;13.50;8.63;;;10.90;83.40;;;10.43;72.81;100870.38;4996868;28;20046;-79
2021/04/19 01:50:47;;;;;;;12.43;8.02;;;10.90;83.40;;;10.45;72.92;100868.38;4997401;28;20084;-79
2021/04/19 01:53:15;;;;;;;13.40;8.65;;;10.90;83.40;;;10.50;72.87;100871.38;4994705;28;20066;-79
2021/04/19 01:55:44;;;;;;;13.95;9.75;;;10.90;83.70;;;10.50;73.05;100876.00;4995714;28;20082;-80
2021/04/19 01:58:15;;;;;;;13.85;8.88;;;11.00;83.70;;;10.55;72.80;100879.03;4997514;28;20097;-79
2021/04/19 02:00:48;;;;;;;12.23;7.90;;;11.00;83.70;;;10.55;72.93;100873.59;4997833;28;20125;-79
2021/04/19 02:03:33;;;;;;;14.50;8.82;;;11.00;83.80;;;10.52;73.38;100874.78;4996116;28;20046;-79
2021/04/19 02:06:09;;;;;;;14.15;8.75;;;11.00;83.90;;;10.51;73.38;100878.53;4995163;28;20050;-79
2021/04/19 02:08:50;;;;;;;14.00;9.32;;;11.00;83.90;;;10.52;73.48;100885.66;4997344;28;20046;-79
2021/04/19 02:11:29;;;;;;;13.93;9.10;;;11.00;84.00;;;10.54;73.51;100872.72;4992970;28;20061;-79
2021/04/19 02:14:09;;;;;;;14.48;9.20;;;11.00;84.10;;;10.53;73.93;100881.09;4990988;28;20153;-79
2021/04/19 02:16:47;;;;;;;13.77;8.68;;;11.10;84.40;;;10.52;74.40;100874.78;4995803;28;20149;-79
2021/04/19 02:19:20;;;;;;;13.52;8.88;;;11.10;84.50;;;10.50;74.28;100874.09;4995835;28;20076;-79
2021/04/19 02:21:52;;;;;;;12.77;8.88;;;11.00;84.70;;;10.49;74.38;100875.16;4995110;28;20046;-79
2021/04/19 02:24:24;;;;;;;13.43;9.15;;;11.00;85.00;;;10.48;74.55;100873.44;4994889;28;20220;-79
2021/04/19 02:26:55;;;;;;;;;;;11.00;85.10;;;10.50;74.09;100874.09;4997283;28;20054;-79
2021/04/19 02:29:32;;;;;;;16.10;9.77;;;11.00;85.00;;;10.55;74.45;100874.44;4995533;28;20282;-79
2021/04/19 02:32:05;;;;;;;14.10;9.88;;;11.10;85.40;;;10.54;75.00;100883.63;4996009;28;20106;-79
2021/04/19 02:34:39;;;;;;;15.80;10.10;;;11.10;85.70;;;10.55;75.16;100879.88;4996964;28;20128;-79
2021/04/19 02:37:09;;;;;;;16.35;10.63;;;11.10;86.00;;;10.53;75.27;100887.38;4995553;28;20077;-79
2021/04/19 02:39:45;;;;;;;13.65;9.68;;;11.10;86.30;;;10.50;75.98;100881.44;4995449;28;20142;-80
2021/04/19 02:42:14;;;;;;;15.63;10.85;;;11.00;86.30;;;10.49;75.78;100877.00;4996868;28;20046;-79
2021/04/19 02:44:47;;;;;;;15.57;10.40;;;11.00;86.40;;;10.47;76.34;100882.63;4993452;28;20070;-79
2021/04/19 02:47:41;;;;;;;15.65;9.90;;;11.00;86.50;;;10.46;76.58;100885.53;4994395;28;20753;-79
2021/04/19 02:50:17;;;;;;;16.23;10.75;;;11.00;86.70;;;10.43;77.06;100883.16;4995748;28;20141;-79
2021/04/19 02:52:45;;;;;;;14.85;10.40;;;11.00;87.00;;;10.43;77.04;100885.88;4995691;28;20053;-79
2021/04/19 02:55:20;;;;;;;15.48;10.55;;;11.00;87.10;;;10.44;76.99;100885.69;4994619;28;20062;-79
2021/04/19 02:57:52;;;;;;;16.40;11.05;;;11.00;87.20;;;10.45;76.98;100889.25;4994897;28;20085;-79
2021/04/19 03:00:23;;;;;;;18.70;11.30;;;11.00;87.40;;;10.46;77.22;100880.09;4996951;28;20046;-79
2021/04/19 03:02:52;;;;;;;17.92;11.40;;;11.00;87.30;;;10.44;77.48;100880.25;4995756;28;20407;-80
2021/04/19 03:05:20;;;;;;;15.07;11.05;;;11.20;87.50;;;10.48;77.19;100878.88;4995156;28;20050;-80
2021/04/19 03:07:57;;;;;;;15.77;11.80;;;11.00;87.40;;;10.48;77.07;100873.44;4995346;28;20097;-79
2021/04/19 03:10:28;;;;;;;19.50;13.05;;;11.10;87.70;;;10.49;77.44;100885.16;4994960;28;20058;-79
2021/04/19 03:12:58;;;;;;;15.63;11.40;;;11.10;87.60;;;10.48;77.51;100878.03;4994264;28;20066;-79
2021/04/19 03:15:31;;;;;;;20.52;13.73;;;11.10;87.70;;;10.50;77.75;100878.72;4994089;28;20046;-79
2021/04/19 03:18:16;;;;;;;20.77;13.55;;;11.10;87.70;;;10.51;77.64;100873.09;4995570;28;20116;-79
2021/04/19 03:21:08;;;;;;;19.65;13.95;;;11.10;87.80;;;10.53;77.72;100865.59;4993790;28;20046;-79
2021/04/19 03:23:51;;;;;;;22.50;15.98;;;11.20;88.00;;;10.55;77.64;100874.44;4992296;28;20054;-80
2021/04/19 03:26:32;;;;;;;22.15;13.93;;;11.20;88.20;;;10.57;77.98;100866.94;4994746;28;20086;-80
2021/04/19 03:29:02;;;;;;;18.05;13.05;;;11.20;88.30;;;10.53;78.17;100865.59;4993701;28;20058;-80
2021/04/19 03:31:47;;;;;;;22.05;15.02;;;11.20;88.30;;;10.51;78.51;100861.38;4994080;28;20046;-79
2021/04/19 03:34:19;;;;;;;21.10;14.88;;;11.20;88.50;;;10.53;78.61;100865.59;4993557;28;20054;-80
2021/04/19 03:36:50;;;;;;;22.52;15.85;;;11.20;88.70;;;10.56;78.31;100865.22;4995786;28;20038;-79
2021/04/19 03:39:18;;;;;;;;;;;11.20;88.90;;;10.55;79.00;100866.28;4994674;28;20414;-80
2021/04/19 03:41:51;;;;;;;22.80;16.05;;;11.20;88.90;;;10.55;78.87;100873.59;4994728;28;19936;-80
2021/04/19 03:44:25;;;;;;;23.38;16.08;;;11.20;89.10;;;10.52;79.02;100863.91;4993946;28;20054;-80
2021/04/19 03:46:58;;;;;;;24.70;16.30;;;11.20;89.20;;;10.53;79.26;100868.31;4995320;28;20050;-79
2021/04/19 03:49:42;;;;;;;25.65;17.48;;;11.20;89.20;;;10.53;79.29;100860.16;4995577;28;20031;-79
2021/04/19 03:52:16;;;;;;;24.77;15.85;;;11.20;89.30;;;10.54;79.36;100861.00;4988406;28;20061;-79
2021/04/19 03:54:50;;;;;;;24.23;17.80;;;11.20;89.40;;;10.56;79.24;100859.78;4993060;28;20082;-79
2021/04/19 03:57:24;;;;;;;23.13;16.90;;;11.20;89.40;;;10.59;79.48;100863.22;4993844;28;20048;-79
2021/04/19 03:59:58;;;;;;;24.35;17.60;;;11.30;89.70;;;10.60;79.50;100860.28;4992820;28;20038;-79
2021/04/19 04:02:48;;;;;;;28.30;18.73;;;11.30;89.80;;;10.60;79.83;100859.44;4994608;28;20048;-80
2021/04/19 04:05:18;;;;;;;28.20;18.55;;;11.30;90.00;;;10.59;80.16;100852.31;4993978;28;20141;-80
2021/04/19 04:08:08;;;;;;;26.13;18.05;;;11.30;90.00;;;10.55;80.34;100866.28;4990856;28;20133;-80
2021/04/19 04:10:37;;;;;;;27.95;17.45;;;11.30;90.20;;;10.57;80.97;100860.66;4992388;28;20097;-80
2021/04/19 04:13:05;;;;;;;28.83;18.73;;;11.20;90.40;;;10.55;80.85;100860.84;4988676;28;20050;-79
2021/04/19 04:15:47;;;;;;;28.13;19.00;;;11.20;90.60;;;10.56;81.00;100870.69;4994971;28;20077;-80
2021/04/19 04:18:14;;;;;;;28.70;19.13;;;11.20;90.80;;;10.57;81.05;100877.00;4993137;28;20050;-80
2021/04/19 04:20:47;;;;;;;29.10;20.23;;;11.20;90.90;;;10.58;81.21;100870.50;4992362;28;20042;-80
2021/04/19 04:23:18;;;;;;;28.92;19.88;;;11.20;91.10;;;10.59;81.23;100871.38;4991304;28;20082;-80
2021/04/19 04:25:46;;;;;;;26.88;19.58;;;11.20;91.20;;;10.55;81.37;100869.00;4993919;28;20034;-80
2021/04/19 04:28:16;;;;;;;27.63;18.95;;;11.20;91.30;;;10.55;81.40;100870.88;4991515;28;20125;-80
2021/04/19 04:31:12;;;;;;;28.45;19.90;;;11.20;91.30;;;10.53;81.75;100870.22;4985364;28;20051;-80
2021/04/19 04:33:45;;;;;;;26.50;19.75;;;11.20;91.50;;;10.51;81.96;100873.09;4990852;28;20074;-80
2021/04/19 04:36:18;;;;;;;32.35;20.98;;;11.20;91.50;;;10.51;81.74;100867.66;4992783;28;20038;-80
2021/04/19 04:38:51;;;;;;;;;;;11.20;91.50;;;10.53;81.75;100870.22;4992220;28;20046;-80
2021/04/19 04:41:24;;;;;;;27.85;19.02;;;11.20;91.60;;;10.52;82.06;100874.78;4993348;28;19983;-80
2021/04/19 04:43:55;;;;;;;28.02;19.77;;;11.20;91.80;;;10.52;81.82;100879.38;4993263;28;20042;-81
2021/04/19 04:46:30;;;;;;;26.85;19.95;;;11.20;91.90;;;10.53;81.86;100887.38;4993604;28;20043;-81
2021/04/19 04:49:02;;;;;;;30.10;20.30;;;11.20;92.00;;;10.50;82.10;100881.44;4993224;28;20046;-81
2021/04/19 04:51:32;;;;;;;30.45;21.17;;;11.20;92.10;;;10.48;82.40;100884.31;4993874;28;20042;-80
2021/04/19 04:54:03;;;;;;;29.50;21.25;;;11.20;92.20;;;10.51;82.23;100877.69;4992658;28;20046;-80
2021/04/19 04:56:35;;;;;;;31.83;21.75;;;11.20;92.30;;;10.51;82.59;100878.53;4993538;28;20050;-81
2021/04/19 04:59:04;;;;;;;29.17;21.52;;;11.20;92.40;;;10.51;82.67;100880.41;4993013;28;20116;-81
2021/04/19 05:01:33;;;;;;;30.33;21.98;;;11.20;92.50;;;10.51;82.41;100881.25;4993570;28;20097;-81
2021/04/19 05:04:02;;;;;;;34.55;21.63;;;11.20;92.60;;;10.53;82.33;100879.22;4991980;28;20050;-81
2021/04/19 05:06:30;;;;;;;32.90;22.35;;;11.20;92.60;;;10.49;82.67;100875.16;4992418;28;20081;-81
2021/04/19 05:08:58;;;;;;;33.65;23.77;;;11.10;92.70;;;10.48;82.74;100868.00;4992068;28;20628;-81
2021/04/19 05:11:24;;;;;;;30.63;22.63;;;11.10;92.70;;;10.50;82.73;100867.81;4992235;28;20046;-81
2021/04/19 05:14:00;;;;;;;30.08;22.80;;;11.20;92.80;;;10.47;82.78;100869.03;4991712;28;20117;-81
2021/04/19 05:16:29;;;;;;;33.58;22.90;;;11.20;92.70;;;10.49;83.09;100866.97;4987895;28;20129;-80
2021/04/19 05:18:58;;;;;;;30.65;22.30;;;11.20;92.90;;;10.46;83.33;100872.75;4994440;28;20044;-81
2021/04/19 05:21:26;;;;;;;33.08;24.10;;;11.20;93.00;;;10.45;83.70;100862.91;4993665;28;20073;-80
2021/04/19 05:23:53;;;;;;;30.60;23.30;;;11.20;93.10;;;10.43;83.62;100859.50;4992824;28;20070;-80
2021/04/19 05:26:20;;;;;;;33.95;23.15;;;11.20;93.00;;;10.50;83.10;100865.09;4992965;28;20047;-80
2021/04/19 05:28:48;;;;;;;30.67;21.63;;;11.20;93.10;;;10.52;83.22;100861.16;4991897;28;20049;-80
2021/04/19 05:31:15;;;;;;;29.65;22.30;;;11.20;93.10;;;10.50;83.64;100855.06;4993152;28;20049;-80
2021/04/19 05:33:43;;;;;;;30.70;22.25;;;11.20;93.20;;;10.51;83.64;100862.22;4993876;28;20085;-80
2021/04/19 05:36:12;;;;;;;29.67;22.00;;;11.20;93.30;;;10.54;83.65;100861.84;4990680;28;20518;-81
2021/04/19 05:38:43;;;;;;;31.15;22.67;;;11.20;93.40;;;10.54;83.58;100863.72;4990523;28;20109;-81
2021/04/19 05:41:11;;;;;;;30.20;21.70;;;11.20;93.40;;;10.56;83.47;100865.22;4991008;28;20101;-80
2021/04/19 05:43:41;;;;;;;30.77;22.30;;;11.20;93.40;;;10.56;83.79;100870.69;4992823;28;20078;-80
2021/04/19 05:46:09;;;;;;;32.38;22.83;;;11.20;93.60;;;10.55;84.00;100865.44;4992117;28;20042;-81
2021/04/19 05:48:35;;;;;;;34.05;23.38;;;11.20;93.60;;;10.55;83.84;100874.44;4994603;28;20106;-81
2021/04/19 05:51:09;;;;;;;32.50;23.65;;;11.20;93.70;;;10.60;83.70;100873.91;4992587;28;20042;-80
2021/04/19 05:53:37;;;;;;;33.20;24.13;;;11.30;93.90;;;10.65;83.63;100873.38;4992481;28;20750;-80
2021/04/19 05:56:10;;;;;;;30.58;22.48;;;11.30;93.90;;;10.62;83.89;100873.72;4990824;28;20121;-81
2021/04/19 05:58:46;;;;;;;37.65;25.15;;;11.30;93.90;;;10.62;83.54;100873.72;4993956;28;20051;-80
2021/04/19 06:01:21;;;;;;;32.22;23.30;;;11.30;93.80;;;10.63;83.76;100883.59;4994657;28;20039;-80
2021/04/19 06:03:56;;;;;;;32.80;22.25;;;11.30;93.60;;;10.64;83.83;100882.56;4992616;28;20050;-80
2021/04/19 06:06:35;;;;;;;27.98;19.13;;;11.30;93.60;;;10.65;83.62;100884.28;4994581;28;20050;-80
2021/04/19 06:09:09;;;;;;;26.02;18.40;;;11.40;93.50;;;10.66;83.82;100886.81;4992670;28;20128;-80
2021/04/19 06:11:54;;;;;;;22.55;16.73;;;11.40;93.50;;;10.64;84.02;100888.00;4993871;28;20055;-80
2021/04/19 06:14:37;;;;;;;22.50;15.90;;;11.40;93.60;;;10.62;83.75;100890.06;4992337;28;20062;-80
2021/04/19 06:17:06;;;;;;;22.25;16.27;;;11.40;93.50;;;10.62;83.72;100887.34;4994527;28;20053;-80
2021/04/19 06:19:38;;;;;;;23.35;16.20;;;11.40;93.10;;;10.63;83.41;100894.50;4995235;28;20480;-80
2021/04/19 06:22:06;;;;;;;22.50;15.98;;;11.40;93.00;;;10.63;83.69;100897.22;4998597;28;20503;-80
2021/04/19 06:24:33;;;;;;;25.67;16.98;;;11.40;93.10;;;10.63;83.69;100894.50;4996508;28;20057;-80
2021/04/19 06:27:00;;;;;;;27.35;17.38;;;11.40;93.10;;;10.67;83.28;100893.09;4997680;28;20057;-80
2021/04/19 06:29:29;;;;;;;24.33;16.52;;;11.40;93.10;;;10.66;82.98;100880.50;4999161;28;20223;-80
2021/04/19 06:31:59;;;;;;;24.90;16.08;;;11.40;93.00;;;10.65;83.38;100884.28;4998457;28;20043;-80
2021/04/19 06:34:25;;;;;;;25.38;16.80;;;11.40;92.90;;;10.67;83.10;100882.22;4998389;28;20046;-80
2021/04/19 06:36:53;;;;;;;23.17;16.58;;;11.40;92.80;;;10.69;83.32;100894.63;4996880;28;20046;-80
2021/04/19 06:39:21;;;;;;;26.13;16.77;;;11.40;93.10;;;10.71;83.57;100886.28;4998007;28;20066;-80
2021/04/19 06:41:49;;;;;;;26.08;17.85;;;11.40;93.40;;;10.67;84.02;100898.56;4997542;28;20119;-80
2021/04/19 06:44:16;;;;;;;29.77;17.77;;;11.40;93.70;;;10.67;84.17;100901.28;4997485;28;20069;-80
2021/04/19 06:46:45;;;;;;;25.80;17.70;;;11.40;93.50;;;10.68;83.76;100897.50;4998219;28;20050;-80
2021/04/19 06:49:13;;;;;;;26.05;17.42;;;11.40;93.40;;;10.68;83.91;100900.22;4997810;28;20042;-80
2021/04/19 06:51:43;;;;;;;26.02;18.27;;;11.40;93.40;;;10.69;83.53;100901.94;4998248;28;20490;-80
2021/04/19 06:54:11;;;;;;;28.33;18.80;;;11.40;93.30;;;10.72;83.54;100907.06;4996872;28;20038;-80
2021/04/19 06:56:41;;;;;;;25.75;18.92;;;11.40;93.40;;;10.74;83.74;100902.28;4997564;28;20076;-80
2021/04/19 06:59:12;;;;;;;27.35;18.77;;;11.40;93.60;;;10.74;83.69;100900.41;4997655;28;20430;-80
2021/04/19 07:01:39;;;;;;;25.52;18.10;;;11.40;93.70;;;10.74;83.49;100900.41;4996465;28;20058;-80
2021/04/19 07:04:11;;;;;;;26.65;17.13;;;11.40;93.40;;;10.72;83.73;100901.59;4996785;28;20050;-80
2021/04/19 07:06:40;;;;;;;29.83;19.63;;;11.40;93.50;;;10.74;83.50;100905.00;4997518;28;20152;-80
2021/04/19 07:09:20;;;;;;;27.27;18.33;;;11.50;93.30;;;10.78;83.55;100902.78;4996837;28;20046;-80
2021/04/19 07:11:53;;;;;;;27.58;18.88;;;11.50;93.40;;;10.76;83.93;100897.50;4996035;28;20053;-80
2021/04/19 07:14:21;;;;;;;27.92;18.90;;;11.50;93.50;;;10.79;83.53;100904.47;4995497;28;20053;-80
2021/04/19 07:16:49;;;;;;;27.63;19.30;;;11.50;93.30;;;10.81;83.51;100900.53;4995252;28;20559;-80
2021/04/19 07:19:16;;;;;;;27.42;19.65;;;11.50;93.10;;;10.83;83.55;100901.19;4994797;28;20450;-80
2021/04/19 07:21:43;;;;;;;28.05;19.25;;;11.60;93.30;;;10.82;83.69;100902.22;4995972;28;20046;-80
2021/04/19 07:24:11;;;;;;;29.30;20.77;;;11.60;93.30;;;10.84;83.58;100902.91;4994586;28;20109;-80
2021/04/19 07:26:38;;;;;;;28.98;20.33;;;11.60;93.30;;;10.86;83.60;100908.19;4994341;28;20042;-80
2021/04/19 07:29:06;;;;;;;30.63;20.52;;;11.60;93.10;;;10.87;83.57;100899.84;4995552;28;20419;-80
2021/04/19 07:31:50;;;;;;;28.55;19.90;;;11.70;93.40;;;10.89;83.94;100907.81;4995305;28;20042;-80
2021/04/19 07:34:20;;;;;;;29.75;20.08;;;11.70;93.60;;;10.92;83.89;100900.13;4994868;28;20070;-80
2021/04/19 07:36:51;;;;;;;28.05;19.63;;;11.70;93.60;;;10.92;83.65;100902.84;4995354;28;20101;-81
2021/04/19 07:39:21;;;;;;;27.10;18.35;;;11.80;93.30;;;10.91;83.52;100901.19;4996330;28;20038;-80
2021/04/19 07:41:51;;;;;;;26.23;19.30;;;11.80;93.00;;;10.92;83.72;100900.13;4996354;28;20047;-80
2021/04/19 07:44:41;;;;;;;27.50;19.45;;;11.80;93.20;;;10.95;83.55;100907.97;4995437;28;20038;-82
2021/04/19 07:47:36;;;;;;;23.20;17.50;;;11.80;93.20;;;10.94;83.21;100900.81;4992175;28;20105;-82
2021/04/19 07:50:22;;;;;;;25.25;17.55;;;11.80;92.60;;;10.93;83.24;100904.56;4991095;28;20046;-82
2021/04/19 07:52:59;;;;;;;23.35;16.13;;;11.80;92.70;;;10.94;82.83;100894.50;4989821;28;20615;-82
2021/04/19 07:55:29;;;;;;;24.38;17.45;;;11.80;92.20;;;10.93;82.85;100899.13;4992162;28;20443;-82
2021/04/19 07:57:56;;;;;;;23.30;16.38;;;11.70;92.00;;;10.94;82.80;100897.25;4991770;28;20093;-82
2021/04/19 08:00:27;;;;;;;22.30;16.38;;;11.70;92.20;;;10.92;82.34;100896.56;4991584;28;20038;-82
2021/04/19 08:03:02;;;;;;;21.25;15.85;;;11.70;91.90;;;10.92;81.88;100897.41;4989853;28;20046;-82
2021/04/19 08:05:38;;;;;;;21.27;14.45;;;11.70;91.90;;;10.92;83.00;100900.13;4990571;28;20112;-82
2021/04/19 08:08:07;;;;;;;21.88;15.65;;;11.70;92.30;;;10.90;83.33;100899.47;4991635;28;20069;-82
2021/04/19 08:10:35;;;;;;;22.33;14.60;;;11.80;92.60;;;10.92;82.90;100897.41;4991493;28;20169;-82
2021/04/19 08:13:07;;;;;;;27.33;16.05;;;11.80;92.10;;;10.94;82.98;100898.09;4989607;28;20054;-82
2021/04/19 08:15:37;;;;;;;23.10;15.93;;;11.80;92.40;;;10.98;83.52;100905.91;4991629;28;20053;-82
2021/04/19 08:18:08;;;;;;;25.43;15.40;;;11.80;92.70;;;11.01;83.55;100908.28;4992162;28;20054;-82
2021/04/19 08:20:37;;;;;;;21.00;15.02;;;11.80;92.90;;;11.03;83.10;100904.34;4991772;28;20490;-82
2021/04/19 08:23:10;;;;;;;23.67;15.75;;;11.90;92.50;;;11.06;83.44;100903.13;4992216;28;20052;-82
2021/04/19 08:25:41;;;;;;;20.33;14.38;;;11.90;92.70;;;11.07;82.91;100910.28;4990508;28;20046;-82
2021/04/19 08:28:11;;;;;;;18.30;14.10;;;11.90;92.30;;;11.07;83.39;100905.69;4990426;28;20453;-82
2021/04/19 08:30:41;;;;;;;20.33;14.60;;;11.90;92.30;;;11.09;83.13;100910.97;4991472;28;20065;-84
2021/04/19 08:33:10;;;;;;;18.75;14.48;;;12.00;92.40;;;11.12;83.31;100902.44;4982976;28;20046;-82
2021/04/19 08:35:38;;;;;;;18.08;13.98;;;12.00;92.40;;;11.15;83.04;100907.50;4990825;28;20050;-82
2021/04/19 08:38:06;;;;;;;23.08;13.27;;;12.00;92.20;;;11.17;83.19;100905.47;4989558;28;20061;-81
2021/04/19 08:40:37;;;;;;;18.83;13.38;;;12.10;92.50;;;11.21;83.26;100914.13;4989149;28;20048;-82
2021/04/19 08:43:09;;;;;;;16.42;11.18;;;12.10;92.40;;;11.22;82.66;100908.50;4990720;28;20461;-82
2021/04/19 08:45:41;;;;;;;16.13;10.50;;;12.10;92.00;;;11.25;82.00;100908.16;4994428;28;20081;-82
2021/04/19 08:48:10;;;;;;;14.05;9.85;;;12.20;91.00;;;11.30;81.85;100908.44;4993374;28;20047;-82
2021/04/19 08:50:38;;;;;;;13.70;8.43;;;12.20;90.30;;;11.35;81.13;100916.09;4977260;28;20494;-82
2021/04/19 08:53:13;;;;;;;12.38;8.02;;;12.20;89.70;;;11.38;81.06;100918.44;4993169;28;20053;-82
2021/04/19 08:55:44;;;;;;;11.57;7.80;;;12.30;89.80;;;11.42;81.26;100916.22;4995818;28;20120;-82
2021/04/19 08:58:13;;;;;;;12.35;7.68;;;12.40;90.30;;;11.45;81.64;100916.69;4992692;28;20046;-82
2021/04/19 09:00:44;;;;;;;10.07;7.30;;;12.40;90.10;;;11.49;81.14;100918.03;4992604;28;20038;-82
2021/04/19 09:03:14;;;;;;;11.68;7.38;;;12.50;89.40;;;11.50;79.91;100916.19;4998697;28;20030;-82
2021/04/19 09:05:41;;;;;;;9.30;6.85;;;12.50;87.50;;;11.54;80.18;100914.78;5011780;28;20057;-82
2021/04/19 09:08:12;;;;;;;9.15;6.43;;;12.50;88.30;;;11.56;80.14;100920.91;4999905;28;20052;-82
2021/04/19 09:10:56;;;;;;;9.00;6.40;;;12.60;88.50;;;11.59;80.03;100915.06;5003015;28;20053;-82
2021/04/19 09:13:29;;;;;;;8.60;6.22;;;12.60;88.30;;;11.63;79.87;100924.59;4995617;28;20038;-82
2021/04/19 09:16:17;;;;;;;7.70;5.68;;;12.60;87.40;;;11.64;79.40;100923.56;5006227;28;20500;-82
2021/04/19 09:18:46;;;;;;;9.68;6.28;;;12.70;86.90;;;11.69;79.24;100931.19;4993874;28;20066;-82
2021/04/19 09:21:37;;;;;;;10.75;6.03;;;12.70;87.60;;;11.72;79.56;100928.09;5009979;28;20069;-82
2021/04/19 09:24:05;;;;;;;9.15;5.72;;;12.70;88.00;;;11.72;79.23;100926.22;5006673;28;20069;-82
2021/04/19 09:26:50;;;;;;;7.57;5.65;;;12.80;87.20;;;11.71;78.44;100924.53;4993397;28;20062;-82
2021/04/19 09:29:47;;;;;;;6.70;4.70;;;12.80;86.00;;;11.73;77.40;100930.66;5004673;28;20561;-82
2021/04/19 09:32:26;;;;;;;7.68;4.57;;;12.80;84.90;;;11.76;77.53;100921.25;5002008;28;20046;-82
2021/04/19 09:34:56;;;;;;;7.72;4.43;;;12.80;85.00;;;11.81;78.11;100924.28;5008109;28;20049;-82
2021/04/19 09:37:55;;;;;;;4.90;3.20;;;12.90;85.10;;;11.88;80.34;100917.06;5006317;28;20453;-82
2021/04/19 09:40:24;;;;;;;6.90;3.17;;;13.00;87.00;;;11.91;78.59;100915.88;5010614;28;20042;-82
2021/04/19 09:43:06;;;;;;;5.28;3.20;;;13.10;84.20;;;11.92;77.38;100921.16;5011213;28;20503;-82
2021/04/19 09:45:54;;;;;;;4.80;3.10;;;13.10;83.50;;;11.94;76.65;100915.53;5009607;28;20074;-82
2021/04/19 09:48:55;;;;;;;4.93;3.20;;;13.10;82.80;;;11.97;76.47;100919.75;4997533;28;20050;-82
2021/04/19 09:51:37;;;;;;;5.10;3.20;;;13.20;83.10;;;11.98;76.67;100913.28;4991080;28;20035;-82
2021/04/19 09:54:09;;;;;;;5.38;3.65;;;13.20;83.10;;;11.99;76.29;100914.97;4987419;28;20050;-82
2021/04/19 09:56:41;;;;;;;5.15;3.25;;;13.20;82.70;;;11.98;75.12;100914.13;5005001;28;20044;-82
2021/04/19 09:59:14;;;;;;;5.88;3.88;;;13.10;81.30;;;11.97;75.54;100915.13;4999063;28;20054;-82
2021/04/19 10:01:45;;;;;;;5.80;3.95;;;13.10;82.60;;;11.95;75.74;100908.19;5014102;28;20533;-82
2021/04/19 10:04:14;;;;;;;6.07;3.83;;;13.10;83.20;;;11.95;75.67;100908.19;5014744;28;20053;-82
2021/04/19 10:06:46;;;;;;;6.00;3.70;;;13.00;83.20;;;11.94;75.93;100904.63;5013270;28;20358;-82
2021/04/19 10:09:15;;;;;;;8.10;3.85;;;13.00;83.60;;;11.92;76.13;100909.41;5008065;28;20088;-82
2021/04/19 10:11:44;;;;;;;5.63;3.97;;;13.00;84.30;;;11.92;76.16;100898.50;4994643;28;20046;-82
2021/04/19 10:14:13;;;;;;;5.80;3.97;;;13.00;84.20;;;11.90;75.64;100895.94;4998188;28;20063;-82
2021/04/19 10:16:43;;;;;;;5.13;3.45;;;13.00;83.90;;;11.90;75.97;100889.66;4998787;28;20081;-82
2021/04/19 10:19:10;;;;;;;5.18;3.30;;;13.00;83.80;;;11.92;75.68;100887.59;4997161;28;20072;-82
2021/04/19 10:21:38;;;;;;;5.95;4.22;;;13.10;83.40;;;11.94;76.94;100888.25;4992610;28;20047;-81
2021/04/19 10:24:14;;;;;;;7.60;4.60;;;13.10;84.20;;;11.97;76.34;100893.31;4992328;28;20054;-80